createdAt,value
2022-09-22T00:01:32.300Z,14.47
2022-09-22T00:04:03.632Z,14.38
2022-09-22T00:06:33.463Z,14.40
2022-09-22T00:09:03.152Z,14.42
2022-09-22T00:11:32.281Z,14.50
2022-09-22T00:14:03.762Z,14.40
2022-09-22T00:16:36.538Z,14.39
2022-09-22T00:19:06.905Z,14.39
2022-09-22T00:21:34.712Z,14.36
2022-09-22T00:24:03.498Z,14.24
2022-09-22T00:26:32.084Z,14.10
2022-09-22T00:29:01.560Z,14.05
2022-09-22T00:31:32.913Z,14.04
2022-09-22T00:34:00.738Z,13.88
2022-09-22T00:36:29.242Z,13.80
2022-09-22T00:38:58.367Z,13.75
2022-09-22T00:41:28.693Z,13.73
2022-09-22T00:44:28.666Z,13.55
2022-09-22T00:47:02.913Z,13.41
2022-09-22T00:49:38.363Z,13.37
2022-09-22T00:52:07.217Z,13.20
2022-09-22T00:54:35.634Z,13.17
2022-09-22T00:57:08.389Z,13.28
2022-09-22T00:59:37.092Z,13.26
2022-09-22T01:02:06.384Z,13.36
2022-09-22T01:04:34.788Z,13.31
2022-09-22T01:07:03.813Z,13.30
2022-09-22T01:09:33.156Z,13.31
2022-09-22T01:12:01.666Z,13.23
2022-09-22T01:14:43.060Z,13.15
2022-09-22T01:17:23.541Z,12.96
2022-09-22T01:20:35.095Z,12.81
2022-09-22T01:23:25.173Z,12.90
2022-09-22T01:26:19.662Z,12.89
2022-09-22T01:29:18.030Z,12.96
2022-09-22T01:31:53.674Z,13.02
2022-09-22T01:34:28.528Z,13.01
2022-09-22T01:37:04.220Z,13.01
2022-09-22T01:39:38.885Z,12.95
2022-09-22T01:42:11.410Z,12.92
2022-09-22T01:44:45.415Z,12.94
2022-09-22T01:47:20.148Z,13.02
2022-09-22T01:49:53.046Z,12.87
2022-09-22T01:52:24.788Z,12.78
2022-09-22T01:54:57.976Z,12.61
2022-09-22T01:57:31.793Z,12.49
2022-09-22T02:00:05.272Z,12.37
2022-09-22T02:02:37.902Z,12.30
2022-09-22T02:05:09.932Z,12.47
2022-09-22T02:07:42.166Z,12.47
2022-09-22T02:10:13.792Z,12.45
2022-09-22T02:12:41.777Z,12.50
2022-09-22T02:15:31.094Z,12.48
2022-09-22T02:18:04.790Z,12.46
2022-09-22T02:20:34.055Z,12.34
2022-09-22T02:23:01.801Z,12.29
2022-09-22T02:25:30.229Z,12.31
2022-09-22T02:27:59.053Z,12.45
2022-09-22T02:30:28.110Z,12.52
2022-09-22T02:32:58.714Z,12.44
2022-09-22T02:35:31.288Z,12.40
2022-09-22T02:38:04.846Z,12.41
2022-09-22T02:40:40.483Z,12.37
2022-09-22T02:43:15.014Z,12.37
2022-09-22T02:45:52.104Z,12.42
2022-09-22T02:48:22.594Z,12.30
2022-09-22T02:50:52.452Z,12.18
2022-09-22T02:53:20.310Z,12.19
2022-09-22T02:55:49.089Z,12.14
2022-09-22T02:58:18.109Z,12.19
2022-09-22T03:00:46.396Z,12.28
2022-09-22T03:03:14.380Z,12.26
2022-09-22T03:05:42.053Z,12.28
2022-09-22T03:08:11.135Z,12.24
2022-09-22T03:10:38.847Z,12.26
2022-09-22T03:13:16.452Z,12.20
2022-09-22T03:15:45.347Z,12.12
2022-09-22T03:18:13.125Z,11.94
2022-09-22T03:20:40.852Z,12.07
2022-09-22T03:23:08.740Z,12.00
2022-09-22T03:25:37.770Z,12.00
2022-09-22T03:28:05.680Z,11.88
2022-09-22T03:30:35.744Z,11.72
2022-09-22T03:33:03.477Z,11.67
2022-09-22T03:35:31.446Z,11.50
2022-09-22T03:37:59.218Z,11.45
2022-09-22T03:40:27.104Z,11.47
2022-09-22T03:42:56.380Z,11.61
2022-09-22T03:45:24.083Z,11.68
2022-09-22T03:47:51.888Z,11.69
2022-09-22T03:50:19.665Z,11.61
2022-09-22T03:52:47.414Z,11.59
2022-09-22T03:55:15.141Z,11.52
2022-09-22T03:57:43.365Z,11.59
2022-09-22T04:00:15.052Z,11.60
2022-09-22T04:02:42.856Z,11.60
2022-09-22T04:05:11.387Z,11.47
2022-09-22T04:07:39.871Z,11.53
2022-09-22T04:10:08.981Z,11.52
2022-09-22T04:12:37.276Z,11.53
2022-09-22T04:15:06.263Z,11.50
2022-09-22T04:17:37.003Z,11.46
2022-09-22T04:20:05.905Z,11.34
2022-09-22T04:22:33.634Z,11.38
2022-09-22T04:25:01.534Z,11.38
2022-09-22T04:27:29.239Z,11.46
2022-09-22T04:29:57.325Z,11.48
2022-09-22T04:32:25.145Z,11.52
2022-09-22T04:34:54.166Z,11.49
2022-09-22T04:37:21.903Z,11.42
2022-09-22T04:39:50.341Z,11.40
2022-09-22T04:42:18.081Z,11.41
2022-09-22T04:44:46.110Z,11.37
2022-09-22T04:47:13.982Z,11.33
2022-09-22T04:49:41.645Z,11.31
2022-09-22T04:52:10.766Z,11.21
2022-09-22T04:54:38.450Z,11.14
2022-09-22T04:57:06.242Z,11.09
2022-09-22T04:59:35.293Z,11.08
2022-09-22T05:02:03.130Z,11.07
2022-09-22T05:04:30.810Z,10.93
2022-09-22T05:06:58.712Z,10.93
2022-09-22T05:09:28.148Z,10.95
2022-09-22T05:12:01.180Z,10.87
2022-09-22T05:14:29.081Z,10.62
2022-09-22T05:16:56.872Z,10.48
2022-09-22T05:19:24.717Z,10.27
2022-09-22T05:21:52.454Z,10.14
2022-09-22T05:24:20.166Z,10.12
2022-09-22T05:26:49.450Z,10.12
2022-09-22T05:29:18.304Z,10.11
2022-09-22T05:31:46.207Z,10.30
2022-09-22T05:34:13.937Z,10.37
2022-09-22T05:36:42.030Z,10.39
2022-09-22T05:39:09.765Z,10.39
2022-09-22T05:41:37.461Z,10.27
2022-09-22T05:44:06.673Z,10.01
2022-09-22T05:46:34.390Z,10.19
2022-09-22T05:49:02.149Z,10.34
2022-09-22T05:51:29.862Z,10.42
2022-09-22T05:53:57.763Z,10.52
2022-09-22T05:56:25.576Z,10.17
2022-09-22T05:58:53.298Z,10.32
2022-09-22T06:01:22.444Z,10.38
2022-09-22T06:03:50.250Z,10.43
2022-09-22T06:06:18.030Z,10.41
2022-09-22T06:08:48.989Z,10.34
2022-09-22T06:11:17.006Z,10.49
2022-09-22T06:13:44.661Z,10.57
2022-09-22T06:16:12.442Z,10.70
2022-09-22T06:18:41.562Z,10.88
2022-09-22T06:21:09.600Z,10.84
2022-09-22T06:23:42.031Z,10.71
2022-09-22T06:26:10.906Z,10.76
2022-09-22T06:28:38.655Z,10.77
2022-09-22T06:31:07.040Z,10.73
2022-09-22T06:33:35.553Z,10.81
2022-09-22T06:36:08.082Z,10.89
2022-09-22T06:38:35.858Z,10.82
2022-09-22T06:41:06.804Z,10.91
2022-09-22T06:43:37.867Z,10.99
2022-09-22T06:46:05.647Z,11.19
2022-09-22T06:48:33.495Z,11.30
2022-09-22T06:51:01.305Z,11.39
2022-09-22T06:53:30.403Z,11.55
2022-09-22T06:56:02.074Z,11.74
2022-09-22T06:58:38.595Z,11.96
2022-09-22T07:01:15.092Z,12.13
2022-09-22T07:03:43.172Z,12.34
2022-09-22T07:06:14.802Z,12.48
2022-09-22T07:08:47.930Z,12.60
2022-09-22T07:11:19.315Z,12.70
2022-09-22T07:13:47.058Z,12.77
2022-09-22T07:16:17.666Z,12.93
2022-09-22T07:18:48.804Z,13.13
2022-09-22T07:21:19.686Z,13.23
2022-09-22T07:23:49.927Z,13.36
2022-09-22T07:26:19.897Z,13.47
2022-09-22T07:28:50.338Z,13.52
2022-09-22T07:31:18.546Z,13.70
2022-09-22T07:33:47.473Z,13.82
2022-09-22T07:36:16.730Z,13.86
2022-09-22T07:38:49.373Z,13.88
2022-09-22T07:41:20.213Z,13.94
2022-09-22T07:43:51.157Z,14.02
2022-09-22T07:46:19.488Z,14.20
2022-09-22T07:48:47.847Z,14.26
2022-09-22T07:51:19.129Z,14.40
2022-09-22T07:53:48.813Z,14.56
2022-09-22T07:56:21.297Z,14.70
2022-09-22T07:58:51.198Z,14.76
2022-09-22T08:01:20.127Z,14.80
2022-09-22T08:03:47.933Z,14.89
2022-09-22T08:06:18.418Z,14.98
2022-09-22T08:08:48.319Z,15.05
2022-09-22T08:11:20.688Z,15.12
2022-09-22T08:13:52.595Z,15.15
2022-09-22T08:16:22.501Z,15.41
2022-09-22T08:18:51.325Z,15.52
2022-09-22T08:21:19.616Z,15.64
2022-09-22T08:23:49.071Z,15.82
2022-09-22T08:26:16.810Z,15.96
2022-09-22T08:28:46.657Z,16.01
2022-09-22T08:31:17.682Z,16.11
2022-09-22T08:33:45.488Z,16.19
2022-09-22T08:36:13.313Z,16.36
2022-09-22T08:38:42.042Z,16.20
2022-09-22T08:41:19.175Z,16.30
2022-09-22T08:43:55.203Z,16.35
2022-09-22T08:46:29.641Z,16.43
2022-09-22T08:49:34.054Z,16.66
2022-09-22T08:52:06.227Z,16.84
2022-09-22T08:54:35.350Z,17.03
2022-09-22T08:57:16.497Z,17.06
2022-09-22T08:59:53.499Z,17.21
2022-09-22T09:02:41.170Z,17.37
2022-09-22T09:05:30.126Z,17.44
2022-09-22T09:08:03.410Z,17.64
2022-09-22T09:10:38.573Z,17.70
2022-09-22T09:13:28.638Z,17.70
2022-09-22T09:16:06.301Z,17.80
2022-09-22T09:18:37.892Z,17.94
2022-09-22T09:21:08.861Z,18.17
2022-09-22T09:26:35.439Z,18.51
2022-09-22T09:29:09.191Z,18.56
2022-09-22T09:31:43.976Z,18.75
2022-09-22T09:34:17.769Z,18.77
2022-09-22T09:36:52.769Z,18.95
2022-09-22T09:39:28.413Z,19.00
2022-09-22T09:41:57.632Z,19.23
2022-09-22T09:44:30.369Z,19.38
2022-09-22T09:47:06.551Z,19.50
2022-09-22T09:49:34.546Z,19.65
2022-09-22T09:52:05.158Z,19.79
2022-09-22T09:54:32.945Z,19.96
2022-09-22T09:57:07.836Z,20.18
2022-09-22T09:59:50.265Z,20.15
2022-09-22T10:02:22.481Z,20.00
2022-09-22T10:04:52.832Z,20.01
2022-09-22T10:07:24.572Z,20.14
2022-09-22T10:09:53.902Z,20.24
2022-09-22T10:12:24.456Z,20.19
2022-09-22T10:14:54.424Z,20.24
2022-09-22T10:17:25.807Z,20.26
2022-09-22T10:19:54.021Z,20.42
2022-09-22T10:22:27.524Z,20.40
2022-09-22T10:24:58.581Z,20.69
2022-09-22T10:27:28.415Z,20.88
2022-09-22T10:30:22.992Z,20.91
2022-09-22T10:33:12.224Z,21.07
2022-09-22T10:35:41.373Z,21.10
2022-09-22T10:38:15.764Z,21.06
2022-09-22T10:40:47.452Z,21.00
2022-09-22T10:43:31.225Z,20.98
2022-09-22T10:46:26.361Z,21.20
2022-09-22T10:49:03.897Z,21.30
2022-09-22T10:51:43.036Z,21.34
2022-09-22T10:54:24.545Z,21.26
2022-09-22T10:56:55.707Z,21.24
2022-09-22T10:59:45.500Z,21.42
2022-09-22T11:02:35.600Z,21.60
2022-09-22T11:05:45.043Z,21.63
2022-09-22T11:08:32.685Z,21.74
2022-09-22T11:11:23.938Z,21.59
2022-09-22T11:14:05.962Z,21.66
2022-09-22T11:16:57.901Z,21.41
2022-09-22T11:19:47.467Z,21.70
2022-09-22T11:22:39.263Z,21.80
2022-09-22T11:25:21.304Z,21.59
2022-09-22T11:28:00.910Z,21.20
2022-09-22T11:30:34.715Z,21.12
2022-09-22T11:33:19.042Z,21.32
2022-09-22T11:36:20.732Z,21.68
2022-09-22T11:39:14.861Z,21.93
2022-09-22T11:41:48.810Z,22.02
2022-09-22T11:44:33.392Z,22.02
2022-09-22T11:47:27.508Z,21.97
2022-09-22T11:50:22.691Z,21.81
2022-09-22T11:53:06.870Z,21.86
2022-09-22T11:55:43.445Z,21.84
2022-09-22T11:58:16.885Z,21.94
2022-09-22T12:00:48.204Z,21.94
2022-09-22T12:03:21.311Z,22.29
2022-09-22T12:05:54.307Z,22.29
2022-09-22T12:08:24.129Z,22.38
2022-09-22T12:10:53.969Z,22.57
2022-09-22T12:13:25.486Z,22.52
2022-09-22T12:16:05.826Z,22.56
2022-09-22T12:18:44.817Z,22.79
2022-09-22T12:21:28.988Z,23.03
2022-09-22T12:24:00.973Z,23.19
2022-09-22T12:26:32.296Z,23.43
2022-09-22T12:29:01.833Z,23.64
2022-09-22T12:31:37.804Z,23.52
2022-09-22T12:34:16.560Z,23.45
2022-09-22T12:36:44.306Z,23.83
2022-09-22T12:39:18.101Z,23.98
2022-09-22T12:41:49.794Z,24.07
2022-09-22T12:44:22.058Z,24.40
2022-09-22T12:46:51.203Z,24.59
2022-09-22T12:49:23.441Z,24.65
2022-09-22T12:51:52.019Z,24.76
2022-09-22T12:54:39.383Z,24.70
2022-09-22T12:57:28.129Z,24.52
2022-09-22T12:59:59.708Z,24.71
2022-09-22T13:02:32.413Z,24.99
2022-09-22T13:05:35.244Z,24.95
2022-09-22T13:08:03.314Z,25.32
2022-09-22T13:10:42.438Z,25.43
2022-09-22T13:13:20.753Z,25.33
2022-09-22T13:15:59.472Z,25.19
2022-09-22T13:18:32.761Z,25.18
2022-09-22T13:21:01.942Z,25.28
2022-09-22T13:23:30.679Z,25.11
2022-09-22T13:26:08.721Z,25.01
2022-09-22T13:28:37.736Z,24.71
2022-09-22T13:31:13.248Z,24.57
2022-09-22T13:33:41.093Z,25.16
2022-09-22T13:36:13.290Z,25.52
2022-09-22T13:38:43.526Z,25.53
2022-09-22T13:41:13.608Z,25.77
2022-09-22T13:43:45.863Z,25.77
2022-09-22T13:46:22.218Z,25.85
2022-09-22T13:48:51.963Z,25.69
2022-09-22T13:51:19.956Z,25.36
2022-09-22T13:53:52.633Z,25.31
2022-09-22T13:56:23.404Z,25.45
2022-09-22T13:58:57.327Z,25.90
2022-09-22T14:01:28.304Z,25.79
2022-09-22T14:03:57.456Z,25.90
2022-09-22T14:06:28.121Z,25.97
2022-09-22T14:08:56.878Z,25.94
2022-09-22T14:11:26.559Z,26.08
2022-09-22T14:14:01.496Z,26.23
2022-09-22T14:16:34.764Z,25.69
2022-09-22T14:19:06.518Z,25.42
2022-09-22T14:21:41.410Z,25.26
2022-09-22T14:24:13.236Z,25.26
2022-09-22T14:26:46.736Z,25.44
2022-09-22T14:29:20.317Z,25.47
2022-09-22T14:31:52.607Z,25.40
2022-09-22T14:34:26.593Z,25.10
2022-09-22T14:36:56.212Z,24.59
2022-09-22T14:39:31.832Z,24.74
2022-09-22T14:42:08.876Z,24.70
2022-09-22T14:44:46.073Z,24.85
2022-09-22T14:47:25.729Z,24.91
2022-09-22T14:50:18.753Z,24.25
2022-09-22T14:52:58.377Z,24.29
2022-09-22T14:55:34.244Z,24.27
2022-09-22T14:58:05.390Z,24.33
2022-09-22T15:00:52.778Z,24.56
2022-09-22T15:03:27.634Z,24.81
2022-09-22T15:05:56.104Z,24.86
2022-09-22T15:08:27.783Z,25.06
2022-09-22T15:10:57.380Z,25.16
2022-09-22T15:13:38.370Z,25.05
2022-09-22T15:16:28.123Z,25.04
2022-09-22T15:18:56.007Z,25.09
2022-09-22T15:21:29.074Z,25.05
2022-09-22T15:24:00.590Z,24.99
2022-09-22T15:26:32.785Z,24.83
2022-09-22T15:29:01.540Z,24.58
2022-09-22T15:31:31.184Z,24.52
2022-09-22T15:34:01.465Z,24.51
2022-09-22T15:36:31.935Z,24.53
2022-09-22T15:39:01.958Z,24.38
2022-09-22T15:41:29.608Z,24.46
2022-09-22T15:43:57.722Z,24.48
2022-09-22T15:46:33.954Z,24.31
2022-09-22T15:49:05.533Z,24.39
2022-09-22T15:51:33.383Z,24.39
2022-09-22T15:54:01.484Z,24.32
2022-09-22T15:56:30.058Z,24.25
2022-09-22T15:59:01.145Z,24.22
2022-09-22T16:01:30.472Z,24.23
2022-09-22T16:04:00.210Z,24.17
2022-09-22T16:06:28.434Z,24.17
2022-09-22T16:08:56.355Z,24.25
2022-09-22T16:11:29.305Z,24.01
2022-09-22T16:14:00.672Z,23.85
2022-09-22T16:16:31.087Z,23.84
2022-09-22T16:18:59.572Z,23.74
2022-09-22T16:21:29.266Z,23.75
2022-09-22T16:24:03.389Z,23.66
2022-09-22T16:26:33.400Z,23.46
2022-09-22T16:29:01.812Z,23.46
2022-09-22T16:31:31.163Z,23.40
2022-09-22T16:34:00.804Z,23.23
2022-09-22T16:36:31.038Z,23.14
2022-09-22T16:38:58.741Z,23.11
2022-09-22T16:41:27.946Z,23.10
2022-09-22T16:43:57.458Z,23.08
2022-09-22T16:46:30.030Z,23.10
2022-09-22T16:49:04.000Z,23.03
2022-09-22T16:51:35.443Z,22.94
2022-09-22T16:54:04.299Z,22.89
2022-09-22T16:56:33.852Z,22.84
2022-09-22T16:59:03.087Z,22.77
2022-09-22T17:01:32.366Z,22.72
2022-09-22T17:04:01.744Z,22.65
2022-09-22T17:06:29.693Z,22.61
2022-09-22T17:08:59.326Z,22.52
2022-09-22T17:11:30.079Z,22.43
2022-09-22T17:14:01.297Z,22.31
2022-09-22T17:16:30.774Z,22.23
2022-09-22T17:19:03.150Z,22.15
2022-09-22T17:21:34.223Z,22.08
2022-09-22T17:24:03.640Z,22.06
2022-09-22T17:26:33.350Z,21.95
2022-09-22T17:29:01.497Z,21.92
2022-09-22T17:31:31.064Z,21.77
2022-09-22T17:33:59.390Z,21.66
2022-09-22T17:36:29.802Z,21.50
2022-09-22T17:38:59.586Z,21.40
2022-09-22T17:41:32.591Z,21.18
2022-09-22T17:44:02.976Z,21.20
2022-09-22T17:46:32.218Z,21.19
2022-09-22T17:49:17.845Z,21.19
2022-09-22T17:52:06.427Z,20.98
2022-09-22T17:54:54.213Z,20.84
2022-09-22T17:57:23.695Z,20.81
2022-09-22T17:59:51.660Z,20.63
2022-09-22T18:02:21.506Z,20.52
2022-09-22T18:04:49.742Z,20.51
2022-09-22T18:07:20.867Z,20.39
2022-09-22T18:09:50.185Z,20.32
2022-09-22T18:12:20.297Z,20.24
2022-09-22T18:14:50.004Z,20.18
2022-09-22T18:17:20.300Z,20.10
2022-09-22T18:19:47.993Z,19.86
2022-09-22T18:22:21.046Z,19.73
2022-09-22T18:24:50.378Z,19.58
2022-09-22T18:27:19.581Z,19.39
2022-09-22T18:29:49.934Z,19.40
2022-09-22T18:32:19.651Z,19.48
2022-09-22T18:34:47.976Z,19.53
2022-09-22T18:37:16.205Z,19.47
2022-09-22T18:39:45.595Z,19.31
2022-09-22T18:42:14.294Z,19.33
2022-09-22T18:44:42.289Z,19.35
2022-09-22T18:47:12.979Z,19.24
2022-09-22T18:49:40.819Z,19.16
2022-09-22T18:52:09.877Z,19.07
2022-09-22T18:54:39.345Z,18.98
2022-09-22T18:57:10.509Z,18.97
2022-09-22T18:59:38.189Z,18.98
2022-09-22T19:02:10.734Z,18.83
2022-09-22T19:04:39.843Z,18.68
2022-09-22T19:07:24.879Z,18.62
2022-09-22T19:09:52.842Z,18.51
2022-09-22T19:12:22.289Z,18.47
2022-09-22T19:14:50.029Z,18.43
2022-09-22T19:17:19.734Z,18.40
2022-09-22T19:19:49.838Z,18.31
2022-09-22T19:22:17.770Z,18.15
2022-09-22T19:24:46.018Z,18.08
2022-09-22T19:27:15.896Z,18.03
2022-09-22T19:29:44.940Z,17.79
2022-09-22T19:32:12.752Z,17.72
2022-09-22T19:34:40.450Z,17.64
2022-09-22T19:37:08.262Z,17.67
2022-09-22T19:39:36.010Z,17.70
2022-09-22T19:42:03.680Z,17.66
2022-09-22T19:44:32.374Z,17.67
2022-09-22T19:47:01.437Z,17.66
2022-09-22T19:49:29.759Z,17.66
2022-09-22T19:51:57.508Z,17.61
2022-09-22T19:54:25.193Z,17.64
2022-09-22T19:56:52.909Z,17.61
2022-09-22T19:59:20.634Z,17.38
2022-09-22T20:01:48.808Z,17.41
2022-09-22T20:04:20.614Z,17.19
2022-09-22T20:06:48.818Z,17.14
2022-09-22T20:09:17.219Z,17.11
2022-09-22T20:11:47.102Z,17.15
2022-09-22T20:14:22.406Z,17.02
2022-09-22T20:16:51.983Z,16.88
2022-09-22T20:19:21.799Z,16.88
2022-09-22T20:21:51.404Z,16.87
2022-09-22T20:24:21.790Z,16.87
2022-09-22T20:26:49.859Z,16.94
2022-09-22T20:29:18.285Z,16.76
2022-09-22T20:31:46.020Z,16.55
2022-09-22T20:34:15.752Z,16.55
2022-09-22T20:36:45.001Z,16.62
2022-09-22T20:39:14.936Z,16.60
2022-09-22T20:41:43.777Z,16.58
2022-09-22T20:44:13.885Z,16.50
2022-09-22T20:46:42.503Z,16.51
2022-09-22T20:49:13.717Z,16.44
2022-09-22T20:51:41.562Z,16.33
2022-09-22T20:54:10.861Z,16.32
2022-09-22T20:56:42.687Z,16.35
2022-09-22T20:59:10.819Z,16.37
2022-09-22T21:01:38.614Z,16.54
2022-09-22T21:04:06.427Z,16.51
2022-09-22T21:06:34.625Z,16.44
2022-09-22T21:09:19.825Z,16.29
2022-09-22T21:11:48.912Z,16.25
2022-09-22T21:14:16.706Z,16.17
2022-09-22T21:16:45.026Z,15.98
2022-09-22T21:19:13.367Z,15.88
2022-09-22T21:21:41.288Z,15.30
2022-09-22T21:24:09.602Z,15.33
2022-09-22T21:26:37.362Z,15.32
2022-09-22T21:29:06.411Z,15.64
2022-09-22T21:31:34.998Z,15.79
2022-09-22T21:34:02.712Z,15.88
2022-09-22T21:36:31.007Z,15.86
2022-09-22T21:39:00.712Z,15.77
2022-09-22T21:41:31.240Z,15.80
2022-09-22T21:43:59.927Z,15.78
2022-09-22T21:46:30.515Z,15.72
2022-09-22T21:49:01.569Z,15.76
2022-09-22T21:51:34.179Z,15.56
2022-09-22T21:54:02.940Z,15.65
2022-09-22T21:56:32.845Z,15.71
2022-09-22T21:59:03.212Z,15.70
2022-09-22T22:01:34.229Z,15.71
2022-09-22T22:04:03.577Z,15.70
2022-09-22T22:06:33.077Z,15.59
2022-09-22T22:09:04.085Z,15.64
2022-09-22T22:11:34.762Z,15.69
2022-09-22T22:14:04.067Z,15.62
2022-09-22T22:16:34.913Z,15.51
2022-09-22T22:19:03.036Z,15.41
2022-09-22T22:21:31.921Z,15.34
2022-09-22T22:24:20.994Z,15.34
2022-09-22T22:26:51.400Z,15.30
2022-09-22T22:29:19.530Z,15.34
2022-09-22T22:31:49.985Z,15.30
2022-09-22T22:34:19.793Z,15.29
2022-09-22T22:36:48.618Z,15.24
2022-09-22T22:39:16.601Z,15.31
2022-09-22T22:41:44.495Z,15.34
2022-09-22T22:44:12.910Z,15.30
2022-09-22T22:46:40.735Z,15.22
2022-09-22T22:49:11.494Z,15.13
2022-09-22T22:51:42.765Z,15.03
2022-09-22T22:54:11.663Z,14.97
2022-09-22T22:56:42.520Z,14.93
2022-09-22T22:59:11.754Z,14.89
2022-09-22T23:01:40.406Z,14.83
2022-09-22T23:04:12.043Z,14.83
2022-09-22T23:06:43.739Z,14.84
2022-09-22T23:09:14.182Z,14.75
2022-09-22T23:11:43.825Z,14.73
2022-09-22T23:14:13.296Z,14.76
2022-09-22T23:16:44.161Z,14.70
2022-09-22T23:19:14.826Z,14.62
2022-09-22T23:21:42.655Z,14.64
2022-09-22T23:24:10.973Z,14.57
2022-09-22T23:26:38.654Z,14.56
2022-09-22T23:29:06.746Z,14.48
2022-09-22T23:31:34.666Z,14.39
2022-09-22T23:34:02.542Z,14.47
2022-09-22T23:36:31.574Z,14.57
2022-09-22T23:39:03.788Z,14.60
2022-09-22T23:41:33.014Z,14.52
2022-09-22T23:44:00.966Z,14.54
2022-09-22T23:46:28.981Z,14.53
2022-09-22T23:48:56.759Z,14.54
2022-09-22T23:51:24.897Z,14.54
2022-09-22T23:53:53.949Z,14.55
2022-09-22T23:56:21.649Z,14.59
2022-09-22T23:58:49.745Z,14.62
